DUB weather

Dublin Airport
Dublin, County Dublin, Ireland

Public forecast

Using degrees Celsius for public forecast. Weather courtesy of forecast.io.

Current aviation weather report (METAR) for Dublin Airport

Retrieved 2020/03/30 20:00 UTC (24 minutes ago):

EIDW 302000Z 35008KT 9999 FEW014 05/02 Q1038 NOSIG

Aviation forecast (TAF) for Dublin Airport

Retrieved 2020/03/30 18:11 UTC (2 hours ago):

TAF EIDW 301700Z 3018/3118 02008KT 9999 SCT018 BKN035 BECMG 3020/3022 35008KT PROB30 TEMPO 3101/3106 BKN010 PROB30 TEMPO 3102/3106 1200 BR BKN004 BECMG 3106/3108 02008KT